createdAt,value
2023-04-03T00:01:23.556Z,6.00
2023-04-03T00:03:53.112Z,8.00
2023-04-03T00:06:21.766Z,8.00
2023-04-03T00:08:50.097Z,7.00
2023-04-03T00:11:19.506Z,6.67
2023-04-03T00:13:48.108Z,7.50
2023-04-03T00:16:17.114Z,7.00
2023-04-03T00:18:45.558Z,8.33
2023-04-03T00:21:15.078Z,7.00
2023-04-03T00:26:12.339Z,7.00
2023-04-03T00:28:41.238Z,6.67
2023-04-03T00:31:09.925Z,7.00
2023-04-03T00:33:38.300Z,4.00
2023-04-03T00:36:09.431Z,7.00
2023-04-03T00:38:38.365Z,8.50
2023-04-03T00:41:07.345Z,8.00
2023-04-03T00:43:36.048Z,6.00
2023-04-03T00:46:04.928Z,5.00
2023-04-03T00:48:35.155Z,7.00
2023-04-03T00:51:06.165Z,7.00
2023-04-03T00:53:43.564Z,7.00
2023-04-03T00:56:14.628Z,5.00
2023-04-03T00:58:50.581Z,8.00
2023-04-03T01:01:23.474Z,7.00
2023-04-03T01:03:52.469Z,7.00
2023-04-03T01:06:32.409Z,7.00
2023-04-03T01:09:01.396Z,6.00
2023-04-03T01:11:29.696Z,7.00
2023-04-03T01:13:58.240Z,5.00
2023-04-03T01:16:26.648Z,7.00
2023-04-03T01:18:55.208Z,5.00
2023-04-03T01:21:38.736Z,7.00
2023-04-03T01:24:25.252Z,7.00
2023-04-03T01:26:53.633Z,8.00
2023-04-03T01:29:22.002Z,6.50
2023-04-03T01:31:53.390Z,7.00
2023-04-03T01:34:22.657Z,5.67
2023-04-03T01:36:52.178Z,6.33
2023-04-03T01:39:21.166Z,6.00
2023-04-03T01:41:50.251Z,6.00
2023-04-03T01:44:18.523Z,8.00
2023-04-03T01:46:47.733Z,7.00
2023-04-03T01:49:16.208Z,6.00
2023-04-03T01:51:44.690Z,8.50
2023-04-03T01:54:13.190Z,7.00
2023-04-03T01:56:41.751Z,3.00
2023-04-03T01:59:10.338Z,8.00
2023-04-03T02:01:38.772Z,2.00
2023-04-03T02:04:07.808Z,5.00
2023-04-03T02:06:36.602Z,5.00
2023-04-03T02:09:05.507Z,6.00
2023-04-03T02:11:33.906Z,7.00
2023-04-03T02:14:02.247Z,6.00
2023-04-03T02:16:32.031Z,5.33
2023-04-03T02:19:00.749Z,6.00
2023-04-03T02:21:29.232Z,5.00
2023-04-03T02:23:57.707Z,5.33
2023-04-03T02:26:27.112Z,5.00
2023-04-03T02:28:55.491Z,6.00
2023-04-03T02:31:25.376Z,3.00
2023-04-03T02:33:53.894Z,6.00
2023-04-03T02:36:22.376Z,6.00
2023-04-03T02:38:50.747Z,5.00
2023-04-03T02:41:19.126Z,6.00
2023-04-03T02:43:47.635Z,6.50
2023-04-03T02:46:16.912Z,6.00
2023-04-03T02:48:45.602Z,7.50
2023-04-03T02:51:13.997Z,5.33
2023-04-03T02:53:42.465Z,4.00
2023-04-03T02:56:11.152Z,5.00
2023-04-03T02:58:39.444Z,6.00
2023-04-03T03:01:08.216Z,5.50
2023-04-03T03:03:36.802Z,4.00
2023-04-03T03:06:07.254Z,4.50
2023-04-03T03:08:36.767Z,5.00
2023-04-03T03:11:06.180Z,5.00
2023-04-03T03:13:34.943Z,5.00
2023-04-03T03:16:03.752Z,4.67
2023-04-03T03:18:32.730Z,5.33
2023-04-03T03:21:02.416Z,6.00
2023-04-03T03:23:33.440Z,6.00
2023-04-03T03:26:07.782Z,6.00
2023-04-03T03:28:37.895Z,6.00
2023-04-03T03:31:07.375Z,6.00
2023-04-03T03:33:36.244Z,6.00
2023-04-03T03:36:04.888Z,3.67
2023-04-03T03:38:33.163Z,5.00
2023-04-03T03:41:01.538Z,6.00
2023-04-03T03:43:29.913Z,5.00
2023-04-03T03:45:58.393Z,5.00
2023-04-03T03:48:26.783Z,5.00
2023-04-03T03:50:55.264Z,6.50
2023-04-03T03:53:23.637Z,4.00
2023-04-03T03:55:52.016Z,6.00
2023-04-03T03:58:20.702Z,3.00
2023-04-03T04:00:49.191Z,1.00
2023-04-03T04:03:17.687Z,5.50
2023-04-03T04:05:46.255Z,5.00
2023-04-03T04:08:14.629Z,5.00
2023-04-03T04:10:43.013Z,4.00
2023-04-03T04:13:11.488Z,3.00
2023-04-03T04:15:40.219Z,6.00
2023-04-03T04:18:09.275Z,5.00
2023-04-03T04:20:37.704Z,5.00
2023-04-03T04:23:06.146Z,5.00
2023-04-03T04:25:34.901Z,6.00
2023-04-03T04:28:03.735Z,6.00
2023-04-03T04:30:32.196Z,5.25
2023-04-03T04:33:01.374Z,5.00
2023-04-03T04:35:30.057Z,4.00
2023-04-03T04:37:58.777Z,6.00
2023-04-03T04:40:27.661Z,5.00
2023-04-03T04:42:56.238Z,3.00
2023-04-03T04:45:24.726Z,5.33
2023-04-03T04:47:54.123Z,4.00
2023-04-03T04:50:22.519Z,6.00
2023-04-03T04:52:51.138Z,4.00
2023-04-03T04:55:19.577Z,6.00
2023-04-03T04:57:47.948Z,4.00
2023-04-03T05:00:17.493Z,5.00
2023-04-03T05:02:46.172Z,3.50
2023-04-03T05:05:15.244Z,4.50
2023-04-03T05:07:43.723Z,4.00
2023-04-03T05:10:12.423Z,4.00
2023-04-03T05:12:40.893Z,4.00
2023-04-03T05:15:10.115Z,4.00
2023-04-03T05:17:38.595Z,4.00
2023-04-03T05:20:07.914Z,5.00
2023-04-03T05:22:36.252Z,4.50
2023-04-03T05:25:05.961Z,4.00
2023-04-03T05:27:34.241Z,4.00
2023-04-03T05:30:04.076Z,5.00
2023-04-03T05:32:32.557Z,5.00
2023-04-03T05:35:01.470Z,2.00
2023-04-03T05:37:30.113Z,4.00
2023-04-03T05:39:58.800Z,5.00
2023-04-03T05:42:27.191Z,3.50
2023-04-03T05:44:55.654Z,5.00
2023-04-03T05:47:24.573Z,5.00
2023-04-03T05:49:53.040Z,4.00
2023-04-03T05:52:29.159Z,4.00
2023-04-03T05:54:58.082Z,5.00
2023-04-03T05:57:26.524Z,4.33
2023-04-03T05:59:54.968Z,4.00
2023-04-03T06:02:24.954Z,4.50
2023-04-03T06:04:53.777Z,4.00
2023-04-03T06:07:24.996Z,3.50
2023-04-03T06:09:53.377Z,3.50
2023-04-03T06:12:22.474Z,4.50
2023-04-03T06:14:51.370Z,4.00
2023-04-03T06:17:19.995Z,3.00
2023-04-03T06:19:48.767Z,2.00
2023-04-03T06:22:17.350Z,4.00
2023-04-03T06:24:45.925Z,4.00
2023-04-03T06:27:14.389Z,4.00
2023-04-03T06:29:42.868Z,4.00
2023-04-03T06:32:11.354Z,3.00
2023-04-03T06:34:39.728Z,5.00
2023-04-03T06:37:08.234Z,6.00
2023-04-03T06:39:37.104Z,5.00
2023-04-03T06:42:05.691Z,5.00
2023-04-03T06:44:35.816Z,4.00
2023-04-03T06:47:04.497Z,7.00
2023-04-03T06:49:33.279Z,5.50
2023-04-03T06:52:02.648Z,5.33
2023-04-03T06:54:31.170Z,6.00
2023-04-03T06:56:59.793Z,1.00
2023-04-03T06:59:28.338Z,6.00
2023-04-03T07:01:56.792Z,6.67
2023-04-03T07:04:25.947Z,4.00
2023-04-03T07:06:54.911Z,5.00
2023-04-03T07:09:23.392Z,6.00
2023-04-03T07:11:52.085Z,6.00
2023-04-03T07:14:20.476Z,6.00
2023-04-03T07:16:48.854Z,6.00
2023-04-03T07:19:19.461Z,5.00
2023-04-03T07:21:47.743Z,6.00
2023-04-03T07:24:16.844Z,5.00
2023-04-03T07:26:46.569Z,6.00
2023-04-03T07:29:15.342Z,5.00
2023-04-03T07:31:44.562Z,5.00
2023-04-03T07:34:13.019Z,6.00
2023-04-03T07:36:42.029Z,6.00
2023-04-03T07:39:10.596Z,5.00
2023-04-03T07:41:39.390Z,7.00
2023-04-03T07:44:10.938Z,6.00
2023-04-03T07:46:39.956Z,6.00
2023-04-03T07:51:37.229Z,5.00
2023-04-03T07:54:05.688Z,4.00
2023-04-03T07:56:34.707Z,6.00
2023-04-03T07:59:03.574Z,6.00
2023-04-03T08:01:33.895Z,4.50
2023-04-03T08:04:02.583Z,6.50
2023-04-03T08:06:45.568Z,5.00
2023-04-03T08:09:18.281Z,7.50
2023-04-03T08:11:47.081Z,6.00
2023-04-03T08:14:19.855Z,5.00
2023-04-03T08:16:49.601Z,5.00
2023-04-03T08:19:26.185Z,6.00
2023-04-03T08:21:56.495Z,5.00
2023-04-03T08:24:24.763Z,6.00
2023-04-03T08:26:53.226Z,5.00
2023-04-03T08:31:51.628Z,6.25
2023-04-03T08:34:21.027Z,5.00
2023-04-03T08:36:49.531Z,4.00
2023-04-03T08:39:18.093Z,5.67
2023-04-03T08:41:49.198Z,5.00
2023-04-03T08:44:33.228Z,6.00
2023-04-03T08:47:07.849Z,4.00
2023-04-03T08:49:41.783Z,5.00
2023-04-03T08:52:18.714Z,6.00
2023-04-03T08:54:55.570Z,6.00
2023-04-03T08:57:32.757Z,4.00
2023-04-03T09:02:40.431Z,3.00
2023-04-03T09:05:18.502Z,6.00
2023-04-03T09:08:07.217Z,5.00
2023-04-03T09:10:39.222Z,5.00
2023-04-03T09:13:19.769Z,1.00
2023-04-03T09:15:48.481Z,5.00
2023-04-03T09:18:22.289Z,0.00
2023-04-03T09:21:05.584Z,5.00
2023-04-03T09:23:45.277Z,3.00
2023-04-03T09:26:40.864Z,5.00
2023-04-03T09:29:11.207Z,4.00
2023-04-03T09:31:42.514Z,5.00
2023-04-03T09:34:33.216Z,5.50
2023-04-03T09:37:09.982Z,5.00
2023-04-03T09:39:56.330Z,3.33
2023-04-03T09:42:26.748Z,5.50
2023-04-03T09:45:06.029Z,4.00
2023-04-03T09:47:36.503Z,5.00
2023-04-03T09:50:17.367Z,4.00
2023-04-03T09:55:20.265Z,5.00
2023-04-03T09:57:52.202Z,5.00
2023-04-03T10:00:23.274Z,5.00
2023-04-03T10:02:57.117Z,5.00
2023-04-03T10:05:43.581Z,5.00
2023-04-03T10:08:12.099Z,5.00
2023-04-03T10:10:49.390Z,6.50
2023-04-03T10:13:22.441Z,4.00
2023-04-03T10:16:14.404Z,3.00
2023-04-03T10:19:02.582Z,5.00
2023-04-03T10:21:46.579Z,4.00
2023-04-03T10:24:25.805Z,6.00
2023-04-03T10:27:06.956Z,5.00
2023-04-03T10:29:38.121Z,4.50
2023-04-03T10:32:21.944Z,4.67
2023-04-03T10:35:05.061Z,2.00
2023-04-03T10:38:10.539Z,3.50
2023-04-03T10:41:17.609Z,4.00
2023-04-03T10:44:01.072Z,4.00
2023-04-03T10:46:36.976Z,3.00
2023-04-03T10:49:11.432Z,4.00
2023-04-03T10:51:49.855Z,5.00
2023-04-03T10:54:33.380Z,4.00
2023-04-03T10:57:12.534Z,3.00
2023-04-03T10:59:53.328Z,4.50
2023-04-03T11:02:31.012Z,5.00
2023-04-03T11:05:12.775Z,3.50
2023-04-03T11:07:46.639Z,3.00
2023-04-03T11:10:22.411Z,4.00
2023-04-03T11:12:54.650Z,3.25
2023-04-03T11:15:25.342Z,5.00
2023-04-03T11:18:00.233Z,1.67
2023-04-03T11:20:34.511Z,4.50
2023-04-03T11:23:23.872Z,6.00
2023-04-03T11:25:54.904Z,4.67
2023-04-03T11:28:23.291Z,6.00
2023-04-03T11:31:10.741Z,6.00
2023-04-03T11:34:02.381Z,3.00
2023-04-03T11:36:41.902Z,4.50
2023-04-03T11:39:25.763Z,5.00
2023-04-03T11:42:06.868Z,5.00
2023-04-03T11:44:40.533Z,5.00
2023-04-03T11:47:14.245Z,4.00
2023-04-03T11:49:53.988Z,5.00
2023-04-03T11:52:43.768Z,3.00
2023-04-03T11:55:24.506Z,5.00
2023-04-03T11:57:58.827Z,3.00
2023-04-03T12:00:47.591Z,4.00
2023-04-03T12:03:26.188Z,3.00
2023-04-03T12:06:07.471Z,5.00
2023-04-03T12:08:42.448Z,5.00
2023-04-03T12:11:13.654Z,5.50
2023-04-03T12:13:43.805Z,4.50
2023-04-03T12:16:49.746Z,5.25
2023-04-03T12:19:42.349Z,3.00
2023-04-03T12:22:17.196Z,4.50
2023-04-03T12:24:51.757Z,5.00
2023-04-03T12:27:39.676Z,6.00
2023-04-03T12:30:27.918Z,4.50
2023-04-03T12:33:12.443Z,5.67
2023-04-03T12:35:58.483Z,4.00
2023-04-03T12:39:17.014Z,4.33
2023-04-03T12:42:00.496Z,5.50
2023-04-03T12:44:53.833Z,5.50
2023-04-03T12:47:34.349Z,4.33
2023-04-03T12:50:05.414Z,5.00
2023-04-03T12:52:38.585Z,3.00
2023-04-03T12:55:17.660Z,4.00
2023-04-03T12:57:46.863Z,5.00
2023-04-03T13:00:35.512Z,7.00
2023-04-03T13:03:05.600Z,5.50
2023-04-03T13:05:36.739Z,5.00
2023-04-03T13:08:11.082Z,4.67
2023-04-03T13:10:54.276Z,5.00
2023-04-03T13:13:24.319Z,5.00
2023-04-03T13:15:54.070Z,5.00
2023-04-03T13:18:29.606Z,4.00
2023-04-03T13:21:02.994Z,5.00
2023-04-03T13:23:32.722Z,5.00
2023-04-03T13:26:04.682Z,5.00
2023-04-03T13:28:34.311Z,4.50
2023-04-03T13:31:05.136Z,5.00
2023-04-03T13:33:38.841Z,4.50
2023-04-03T13:36:37.715Z,6.00
2023-04-03T13:39:12.033Z,6.00
2023-04-03T13:41:43.242Z,5.00
2023-04-03T13:44:17.601Z,5.00
2023-04-03T13:46:46.613Z,7.00
2023-04-03T13:49:29.720Z,5.00
2023-04-03T13:52:07.220Z,5.00
2023-04-03T13:54:39.765Z,6.00
2023-04-03T13:57:17.844Z,5.00
2023-04-03T13:59:46.306Z,6.00
2023-04-03T14:02:23.035Z,4.50
2023-04-03T14:04:59.198Z,3.00
2023-04-03T14:07:28.608Z,5.00
2023-04-03T14:09:57.094Z,5.00
2023-04-03T14:12:39.152Z,5.00
2023-04-03T14:15:21.805Z,6.00
2023-04-03T14:17:50.410Z,5.50
2023-04-03T14:20:22.967Z,5.00
2023-04-03T14:22:52.542Z,5.00
2023-04-03T14:25:21.675Z,4.00
2023-04-03T14:27:52.113Z,4.00
2023-04-03T14:30:29.404Z,5.00
2023-04-03T14:32:57.992Z,5.00
2023-04-03T14:35:26.633Z,4.00
2023-04-03T14:37:56.973Z,5.00
2023-04-03T14:40:28.762Z,3.50
2023-04-03T14:42:58.547Z,5.00
2023-04-03T14:45:27.537Z,6.00
2023-04-03T14:47:57.147Z,4.00
2023-04-03T14:50:28.505Z,3.50
2023-04-03T14:52:59.785Z,5.00
2023-04-03T14:55:29.067Z,5.00
2023-04-03T14:57:57.327Z,4.00
2023-04-03T15:00:25.688Z,5.00
2023-04-03T15:02:54.064Z,5.00
2023-04-03T15:05:22.533Z,5.00
2023-04-03T15:07:56.076Z,4.00
2023-04-03T15:10:27.991Z,5.00
2023-04-03T15:12:56.894Z,4.00
2023-04-03T15:15:25.886Z,4.00
2023-04-03T15:17:56.231Z,5.00
2023-04-03T15:20:31.642Z,6.00
2023-04-03T15:23:04.202Z,6.00
2023-04-03T15:25:33.729Z,4.67
2023-04-03T15:28:02.319Z,4.67
2023-04-03T15:30:30.749Z,5.00
2023-04-03T15:32:59.033Z,5.00
2023-04-03T15:35:27.292Z,5.00
2023-04-03T15:37:55.569Z,4.00
2023-04-03T15:40:23.814Z,4.00
2023-04-03T15:42:54.272Z,4.00
2023-04-03T15:45:23.015Z,5.00
2023-04-03T15:47:51.393Z,4.00
2023-04-03T15:50:19.792Z,5.00
2023-04-03T15:52:48.111Z,4.00
2023-04-03T15:55:16.357Z,6.00
2023-04-03T15:57:44.509Z,5.00
2023-04-03T16:00:13.443Z,2.00
2023-04-03T16:02:42.718Z,3.50
2023-04-03T16:05:11.354Z,4.00
2023-04-03T16:07:41.172Z,4.33
2023-04-03T16:10:10.691Z,5.00
2023-04-03T16:12:39.297Z,4.00
2023-04-03T16:15:08.706Z,4.00
2023-04-03T16:17:38.833Z,4.50
2023-04-03T16:20:08.424Z,4.00
2023-04-03T16:22:37.036Z,5.00
2023-04-03T16:25:07.132Z,4.00
2023-04-03T16:27:35.469Z,5.00
2023-04-03T16:30:04.112Z,4.50
2023-04-03T16:32:32.869Z,3.00
2023-04-03T16:37:31.872Z,4.00
2023-04-03T16:40:01.249Z,4.00
2023-04-03T16:42:29.501Z,4.00
2023-04-03T16:44:57.819Z,3.00
2023-04-03T16:47:26.174Z,4.00
2023-04-03T16:49:54.568Z,5.00
2023-04-03T16:52:22.840Z,5.50
2023-04-03T16:54:52.859Z,4.00
2023-04-03T16:57:21.900Z,6.00
2023-04-03T16:59:51.179Z,5.00
2023-04-03T17:02:19.758Z,5.00
2023-04-03T17:04:49.085Z,5.00
2023-04-03T17:07:20.910Z,3.00
2023-04-03T17:09:49.172Z,5.00
2023-04-03T17:12:17.596Z,5.00
2023-04-03T17:14:47.840Z,4.00
2023-04-03T17:17:17.191Z,3.00
2023-04-03T17:19:45.732Z,3.33
2023-04-03T17:22:13.977Z,4.00
2023-04-03T17:30:00.893Z,4.25
2023-04-03T17:32:29.497Z,3.67
2023-04-03T17:34:57.991Z,6.00
2023-04-03T17:37:26.516Z,4.33
2023-04-03T17:39:54.996Z,4.00
2023-04-03T17:42:23.279Z,29.00
2023-04-03T17:44:51.760Z,71.00
2023-04-03T17:47:20.342Z,97.50
2023-04-03T17:49:48.719Z,93.50
2023-04-03T17:52:17.412Z,79.00
2023-04-03T17:54:46.707Z,74.25
2023-04-03T17:57:15.092Z,77.00
2023-04-03T17:59:43.774Z,70.67
2023-04-03T18:02:12.254Z,67.67
2023-04-03T18:04:40.845Z,75.33
2023-04-03T18:07:10.377Z,72.25
2023-04-03T18:09:41.508Z,71.00
2023-04-03T18:12:10.697Z,66.25
2023-04-03T18:14:39.686Z,69.67
2023-04-03T18:17:08.682Z,66.25
2023-04-03T18:19:37.262Z,62.50
2023-04-03T18:22:12.094Z,61.50
2023-04-03T18:24:40.987Z,59.33
2023-04-03T18:27:15.815Z,58.00
2023-04-03T18:29:46.244Z,53.25
2023-04-03T18:32:16.058Z,55.50
2023-04-03T18:34:44.380Z,52.25
2023-04-03T18:37:13.219Z,52.67
2023-04-03T18:39:42.017Z,51.75
2023-04-03T18:42:14.287Z,47.33
2023-04-03T18:44:45.219Z,47.75
2023-04-03T18:47:13.559Z,42.50
2023-04-03T18:49:42.595Z,41.33
2023-04-03T18:52:12.152Z,43.00
2023-04-03T18:54:41.500Z,37.00
2023-04-03T18:57:10.098Z,34.33
2023-04-03T18:59:38.981Z,39.00
2023-04-03T19:02:08.897Z,32.67
2023-04-03T19:04:37.485Z,38.00
2023-04-03T19:07:06.783Z,33.00
2023-04-03T19:09:35.878Z,34.00
2023-04-03T19:12:04.561Z,32.67
2023-04-03T19:14:33.247Z,33.50
2023-04-03T19:17:02.652Z,32.33
2023-04-03T19:19:31.178Z,34.00
2023-04-03T19:21:59.511Z,32.67
2023-04-03T19:24:27.889Z,31.00
2023-04-03T19:26:56.494Z,29.50
2023-04-03T19:29:25.069Z,30.00
2023-04-03T19:31:53.549Z,30.50
2023-04-03T19:34:22.331Z,27.00
2023-04-03T19:36:52.378Z,28.67
2023-04-03T19:39:21.133Z,28.00
2023-04-03T19:41:50.136Z,28.67
2023-04-03T19:44:18.856Z,27.00
2023-04-03T19:46:51.052Z,28.00
2023-04-03T19:49:20.925Z,26.50
2023-04-03T19:51:49.196Z,26.50
2023-04-03T19:54:17.973Z,28.00
2023-04-03T19:56:46.753Z,23.50
2023-04-03T19:59:16.596Z,26.50
2023-04-03T20:01:46.643Z,25.33
2023-04-03T20:04:15.408Z,26.00
2023-04-03T20:06:43.862Z,23.00
2023-04-03T20:09:12.264Z,26.00
2023-04-03T20:11:41.125Z,20.67
2023-04-03T20:14:09.518Z,22.50
2023-04-03T20:16:38.398Z,23.00
2023-04-03T20:19:07.492Z,22.50
2023-04-03T20:21:36.627Z,20.00
2023-04-03T20:24:07.963Z,22.00
2023-04-03T20:26:39.091Z,21.33
2023-04-03T20:29:07.569Z,20.00
2023-04-03T20:31:36.286Z,21.33
2023-04-03T20:34:04.635Z,20.67
2023-04-03T20:36:33.737Z,22.00
2023-04-03T20:39:02.258Z,18.33
2023-04-03T20:41:32.123Z,18.50
2023-04-03T20:44:01.020Z,19.33
2023-04-03T20:46:42.092Z,18.50
2023-04-03T20:49:18.149Z,18.25
2023-04-03T20:51:46.340Z,15.67
2023-04-03T20:54:14.928Z,18.67
2023-04-03T20:56:44.424Z,15.25
2023-04-03T20:59:15.158Z,15.33
2023-04-03T21:01:43.732Z,15.00
2023-04-03T21:04:25.084Z,13.50
2023-04-03T21:07:31.109Z,14.67
2023-04-03T21:10:37.660Z,12.50
2023-04-03T21:13:43.624Z,12.00
2023-04-03T21:16:12.138Z,11.50
2023-04-03T21:18:53.894Z,12.33
2023-04-03T21:21:24.742Z,10.00
2023-04-03T21:23:54.439Z,11.75
2023-04-03T21:26:23.646Z,11.50
2023-04-03T21:28:52.635Z,14.00
2023-04-03T21:31:22.092Z,10.75
2023-04-03T21:33:51.452Z,11.00
2023-04-03T21:36:19.718Z,11.75
2023-04-03T21:38:48.612Z,10.75
2023-04-03T21:41:16.990Z,10.75
2023-04-03T21:43:47.322Z,6.33
2023-04-03T21:46:16.149Z,8.50
2023-04-03T21:48:47.257Z,8.75
2023-04-03T21:51:17.502Z,11.00
2023-04-03T21:53:46.984Z,8.50
2023-04-03T21:56:15.256Z,9.00
2023-04-03T21:58:43.802Z,8.00
2023-04-03T22:01:15.817Z,8.50
2023-04-03T22:03:45.431Z,8.67
2023-04-03T22:06:15.585Z,8.00
2023-04-03T22:08:44.127Z,9.00
2023-04-03T22:11:16.790Z,8.00
2023-04-03T22:13:45.816Z,8.00
2023-04-03T22:16:14.267Z,8.50
2023-04-03T22:18:42.757Z,6.00
2023-04-03T22:21:11.233Z,7.67
2023-04-03T22:23:39.916Z,7.00
2023-04-03T22:26:12.090Z,8.00
2023-04-03T22:28:42.513Z,8.00
2023-04-03T22:31:14.606Z,6.33
2023-04-03T22:33:44.963Z,6.00
2023-04-03T22:36:14.588Z,7.00
2023-04-03T22:38:47.605Z,6.00
2023-04-03T22:41:15.981Z,4.50
2023-04-03T22:43:44.365Z,5.33
2023-04-03T22:46:12.776Z,4.00
2023-04-03T22:48:45.560Z,6.25
2023-04-03T22:51:14.308Z,3.00
2023-04-03T22:53:42.480Z,5.00
2023-04-03T22:56:14.237Z,4.00
2023-04-03T22:58:42.720Z,4.33
2023-04-03T23:01:12.432Z,5.00
2023-04-03T23:03:42.054Z,4.25
2023-04-03T23:06:11.047Z,5.00
2023-04-03T23:08:40.999Z,4.67
2023-04-03T23:11:10.004Z,4.50
2023-04-03T23:13:38.630Z,4.33
2023-04-03T23:16:07.365Z,4.00
2023-04-03T23:18:40.039Z,1.50
2023-04-03T23:21:09.600Z,3.75
2023-04-03T23:23:38.311Z,2.00
2023-04-03T23:26:06.892Z,2.50
2023-04-03T23:28:35.563Z,2.67
2023-04-03T23:31:06.894Z,3.33
2023-04-03T23:33:35.497Z,4.00
2023-04-03T23:36:08.228Z,4.75
2023-04-03T23:38:37.224Z,4.00
2023-04-03T23:41:06.394Z,3.50
2023-04-03T23:43:35.467Z,2.00
2023-04-03T23:46:03.820Z,3.50
2023-04-03T23:48:32.329Z,3.50
2023-04-03T23:51:00.810Z,3.50
2023-04-03T23:53:29.194Z,2.67
2023-04-03T23:55:59.646Z,4.00
2023-04-03T23:58:27.890Z,3.00
